Aviation Digital Data Service (ADDS)

Output produced by METARs form (2114 UTC 20 August 2019)
found at http://www.aviationweather.gov/metar/data/
 
METAR text: EDDH 202050Z 29002KT CAVOK 15/14 Q1023 TEMPO 2000 BCFG
Conditions at: EDDH (HAMBURG/FUHLSBUT, DE) observed 2050 UTC 20 August 2019
Temperature: 15.0°C (59°F)
Dewpoint: 14.0°C (57°F) [RH = 94%]
Pressure (altimeter): 30.21 inches Hg (1023.0 mb)
Winds: from the WNW (290 degrees) at 2 MPH (2 knots; 1.0 m/s)
Visibility: 6 or more miles (10+ km)
Ceiling: ceiling and visibility are OK
Clouds: unknown
Weather: no significant weather observed at this time

METAR text: EDDH 202020Z 24003KT 220V300 CAVOK 15/14 Q1023 NOSIG
Conditions at: EDDH (HAMBURG/FUHLSBUT, DE) observed 2020 UTC 20 August 2019
Temperature: 15.0°C (59°F)
Dewpoint: 14.0°C (57°F) [RH = 94%]
Pressure (altimeter): 30.21 inches Hg (1023.0 mb)
Winds: from the WSW (240 degrees) at 3 MPH (3 knots; 1.5 m/s)
Visibility: 6 or more miles (10+ km)
Ceiling: ceiling and visibility are OK
Clouds: unknown
Weather: no significant weather observed at this time

METAR text: EDDH 201950Z 33004KT CAVOK 16/14 Q1023 NOSIG
Conditions at: EDDH (HAMBURG/FUHLSBUT, DE) observed 1950 UTC 20 August 2019
Temperature: 16.0°C (61°F)
Dewpoint: 14.0°C (57°F) [RH = 88%]
Pressure (altimeter): 30.21 inches Hg (1023.0 mb)
Winds: from the NNW (330 degrees) at 5 MPH (4 knots; 2.1 m/s)
Visibility: 6 or more miles (10+ km)
Ceiling: ceiling and visibility are OK
Clouds: unknown
Weather: no significant weather observed at this time

METAR text: EDDH 201920Z 25004KT 9999 -SHRA FEW040CB 16/14 Q1023 NOSIG
Conditions at: EDDH (HAMBURG/FUHLSBUT, DE) observed 1920 UTC 20 August 2019
Temperature: 16.0°C (61°F)
Dewpoint: 14.0°C (57°F) [RH = 88%]
Pressure (altimeter): 30.21 inches Hg (1023.0 mb)
Winds: from the WSW (250 degrees) at 5 MPH (4 knots; 2.1 m/s)
Visibility: 6 or more miles (10+ km)
Ceiling: at least 12,000 feet AGL
Clouds: few clouds at 4000 feet AGL
Weather: -SHRA  (light rain showers)

METAR text: EDDH 201850Z 30003KT 9999 -SHRA FEW045CB 15/14 Q1023 TEMPO 30015G30KT SHRA
Conditions at: EDDH (HAMBURG/FUHLSBUT, DE) observed 1850 UTC 20 August 2019
Temperature: 15.0°C (59°F)
Dewpoint: 14.0°C (57°F) [RH = 94%]
Pressure (altimeter): 30.21 inches Hg (1023.0 mb)
Winds: from the WNW (300 degrees) at 3 MPH (3 knots; 1.5 m/s)
Visibility: 6 or more miles (10+ km)
Ceiling: at least 12,000 feet AGL
Clouds: few clouds at 4500 feet AGL
Weather: -SHRA  (light rain showers)

METAR text: EDDH 201820Z 31004KT 270V330 9999 FEW040CB 16/15 Q1023 TEMPO 30015G30KT SHRA
Conditions at: EDDH (HAMBURG/FUHLSBUT, DE) observed 1820 UTC 20 August 2019
Temperature: 16.0°C (61°F)
Dewpoint: 15.0°C (59°F) [RH = 94%]
Pressure (altimeter): 30.21 inches Hg (1023.0 mb)
Winds: from the NW (310 degrees) at 5 MPH (4 knots; 2.1 m/s)
Visibility: 6 or more miles (10+ km)
Ceiling: at least 12,000 feet AGL
Clouds: few clouds at 4000 feet AGL
Weather: no significant weather observed at this time

METAR text: EDDH 201750Z 03003KT 360V060 9999 VCSH FEW040CB 16/15 Q1022 TEMPO SHRA
Conditions at: EDDH (HAMBURG/FUHLSBUT, DE) observed 1750 UTC 20 August 2019
Temperature: 16.0°C (61°F)
Dewpoint: 15.0°C (59°F) [RH = 94%]
Pressure (altimeter): 30.18 inches Hg (1022.0 mb)
Winds: from the NNE (30 degrees) at 3 MPH (3 knots; 1.5 m/s)
Visibility: 6 or more miles (10+ km)
Ceiling: at least 12,000 feet AGL
Clouds: few clouds at 4000 feet AGL
Weather: VCSH  (showers in vicinity)

METAR text: EDDH 201720Z 22004KT 190V250 9999 -SHRA FEW021 SCT045CB 16/14 Q1022 RESHRA TEMPO SHRA
Conditions at: EDDH (HAMBURG/FUHLSBUT, DE) observed 1720 UTC 20 August 2019
Temperature: 16.0°C (61°F)
Dewpoint: 14.0°C (57°F) [RH = 88%]
Pressure (altimeter): 30.18 inches Hg (1022.0 mb)
Winds: from the SW (220 degrees) at 5 MPH (4 knots; 2.1 m/s)
Visibility: 6 or more miles (10+ km)
Ceiling: at least 12,000 feet AGL
Clouds: few clouds at 2100 feet AGL
scattered clouds at 4500 feet AGL
Weather: -SHRA  (light rain showers)

METAR text: EDDH 201650Z 27010KT 230V300 9999 SHRA BKN030CB 18/12 Q1022 BECMG NSW
Conditions at: EDDH (HAMBURG/FUHLSBUT, DE) observed 1650 UTC 20 August 2019
Temperature: 18.0°C (64°F)
Dewpoint: 12.0°C (54°F) [RH = 68%]
Pressure (altimeter): 30.18 inches Hg (1022.0 mb)
Winds: from the W (270 degrees) at 12 MPH (10 knots; 5.1 m/s)
Visibility: 6 or more miles (10+ km)
Ceiling: 3000 feet AGL
Clouds: broken clouds at 3000 feet AGL
Weather: SHRA  (rain showers)

METAR text: EDDH 201620Z 32008KT 9999 -SHRA SCT045CB 20/11 Q1021 TEMPO SHRA
Conditions at: EDDH (HAMBURG/FUHLSBUT, DE) observed 1620 UTC 20 August 2019
Temperature: 20.0°C (68°F)
Dewpoint: 11.0°C (52°F) [RH = 56%]
Pressure (altimeter): 30.15 inches Hg (1021.0 mb)
Winds: from the NW (320 degrees) at 9 MPH (8 knots; 4.1 m/s)
Visibility: 6 or more miles (10+ km)
Ceiling: at least 12,000 feet AGL
Clouds: scattered clouds at 4500 feet AGL
Weather: -SHRA  (light rain showers)

METAR text: EDDH 201550Z 32007KT 270V340 9999 FEW050TCU 21/10 Q1021 TEMPO SHRA BKN040CB
Conditions at: EDDH (HAMBURG/FUHLSBUT, DE) observed 1550 UTC 20 August 2019
Temperature: 21.0°C (70°F)
Dewpoint: 10.0°C (50°F) [RH = 49%]
Pressure (altimeter): 30.15 inches Hg (1021.0 mb)
Winds: from the NW (320 degrees) at 8 MPH (7 knots; 3.6 m/s)
Visibility: 6 or more miles (10+ km)
Ceiling: at least 12,000 feet AGL
Clouds: few clouds at 5000 feet AGL
Weather: no significant weather observed at this time

METAR text: EDDH 201520Z VRB06KT CAVOK 21/09 Q1021 TEMPO SHRA BKN040CB
Conditions at: EDDH (HAMBURG/FUHLSBUT, DE) observed 1520 UTC 20 August 2019
Temperature: 21.0°C (70°F)
Dewpoint: 9.0°C (48°F) [RH = 46%]
Pressure (altimeter): 30.15 inches Hg (1021.0 mb)
Winds: variable direction winds at 7 MPH (6 knots; 3.1 m/s)
Visibility: 6 or more miles (10+ km)
Ceiling: ceiling and visibility are OK
Clouds: unknown
Weather: no significant weather observed at this time

METAR text: EDDH 201450Z 28008KT 240V320 CAVOK 22/09 Q1021 NOSIG
Conditions at: EDDH (HAMBURG/FUHLSBUT, DE) observed 1450 UTC 20 August 2019
Temperature: 22.0°C (72°F)
Dewpoint: 9.0°C (48°F) [RH = 43%]
Pressure (altimeter): 30.15 inches Hg (1021.0 mb)
Winds: from the W (280 degrees) at 9 MPH (8 knots; 4.1 m/s)
Visibility: 6 or more miles (10+ km)
Ceiling: ceiling and visibility are OK
Clouds: unknown
Weather: no significant weather observed at this time

METAR text: EDDH 201420Z 27008KT 240V350 9999 FEW049 22/09 Q1021 NOSIG
Conditions at: EDDH (HAMBURG/FUHLSBUT, DE) observed 1420 UTC 20 August 2019
Temperature: 22.0°C (72°F)
Dewpoint: 9.0°C (48°F) [RH = 43%]
Pressure (altimeter): 30.15 inches Hg (1021.0 mb)
Winds: from the W (270 degrees) at 9 MPH (8 knots; 4.1 m/s)
Visibility: 6 or more miles (10+ km)
Ceiling: at least 12,000 feet AGL
Clouds: few clouds at 4900 feet AGL
Weather: no significant weather observed at this time

METAR text: EDDH 201350Z 26005KT 210V290 9999 SCT047 21/10 Q1021 NOSIG
Conditions at: EDDH (HAMBURG/FUHLSBUT, DE) observed 1350 UTC 20 August 2019
Temperature: 21.0°C (70°F)
Dewpoint: 10.0°C (50°F) [RH = 49%]
Pressure (altimeter): 30.15 inches Hg (1021.0 mb)
Winds: from the W (260 degrees) at 6 MPH (5 knots; 2.6 m/s)
Visibility: 6 or more miles (10+ km)
Ceiling: at least 12,000 feet AGL
Clouds: scattered clouds at 4700 feet AGL
Weather: no significant weather observed at this time

METAR text: EDDH 201320Z 26007KT 210V310 9999 FEW045 22/10 Q1021 NOSIG
Conditions at: EDDH (HAMBURG/FUHLSBUT, DE) observed 1320 UTC 20 August 2019
Temperature: 22.0°C (72°F)
Dewpoint: 10.0°C (50°F) [RH = 46%]
Pressure (altimeter): 30.15 inches Hg (1021.0 mb)
Winds: from the W (260 degrees) at 8 MPH (7 knots; 3.6 m/s)
Visibility: 6 or more miles (10+ km)
Ceiling: at least 12,000 feet AGL
Clouds: few clouds at 4500 feet AGL
Weather: no significant weather observed at this time

METAR text: EDDH 201250Z 27009KT 220V300 9999 FEW045 21/10 Q1021 NOSIG
Conditions at: EDDH (HAMBURG/FUHLSBUT, DE) observed 1250 UTC 20 August 2019
Temperature: 21.0°C (70°F)
Dewpoint: 10.0°C (50°F) [RH = 49%]
Pressure (altimeter): 30.15 inches Hg (1021.0 mb)
Winds: from the W (270 degrees) at 10 MPH (9 knots; 4.6 m/s)
Visibility: 6 or more miles (10+ km)
Ceiling: at least 12,000 feet AGL
Clouds: few clouds at 4500 feet AGL
Weather: no significant weather observed at this time

METAR text: EDDH 201220Z 25007KT 200V310 9999 SCT040 20/10 Q1021 NOSIG
Conditions at: EDDH (HAMBURG/FUHLSBUT, DE) observed 1220 UTC 20 August 2019
Temperature: 20.0°C (68°F)
Dewpoint: 10.0°C (50°F) [RH = 53%]
Pressure (altimeter): 30.15 inches Hg (1021.0 mb)
Winds: from the WSW (250 degrees) at 8 MPH (7 knots; 3.6 m/s)
Visibility: 6 or more miles (10+ km)
Ceiling: at least 12,000 feet AGL
Clouds: scattered clouds at 4000 feet AGL
Weather: no significant weather observed at this time

METAR text: EDDH 201150Z 25011KT 220V280 9999 SCT041 20/11 Q1021 NOSIG
Conditions at: EDDH (HAMBURG/FUHLSBUT, DE) observed 1150 UTC 20 August 2019
Temperature: 20.0°C (68°F)
Dewpoint: 11.0°C (52°F) [RH = 56%]
Pressure (altimeter): 30.15 inches Hg (1021.0 mb)
Winds: from the WSW (250 degrees) at 13 MPH (11 knots; 5.7 m/s)
Visibility: 6 or more miles (10+ km)
Ceiling: at least 12,000 feet AGL
Clouds: scattered clouds at 4100 feet AGL
Weather: no significant weather observed at this time

METAR text: EDDH 201120Z 24011KT 210V270 9999 SCT039 20/10 Q1021 NOSIG
Conditions at: EDDH (HAMBURG/FUHLSBUT, DE) observed 1120 UTC 20 August 2019
Temperature: 20.0°C (68°F)
Dewpoint: 10.0°C (50°F) [RH = 53%]
Pressure (altimeter): 30.15 inches Hg (1021.0 mb)
Winds: from the WSW (240 degrees) at 13 MPH (11 knots; 5.7 m/s)
Visibility: 6 or more miles (10+ km)
Ceiling: at least 12,000 feet AGL
Clouds: scattered clouds at 3900 feet AGL
Weather: no significant weather observed at this time

METAR text: EDDH 201050Z 27010KT 240V300 9999 FEW036 20/12 Q1021 NOSIG
Conditions at: EDDH (HAMBURG/FUHLSBUT, DE) observed 1050 UTC 20 August 2019
Temperature: 20.0°C (68°F)
Dewpoint: 12.0°C (54°F) [RH = 60%]
Pressure (altimeter): 30.15 inches Hg (1021.0 mb)
Winds: from the W (270 degrees) at 12 MPH (10 knots; 5.1 m/s)
Visibility: 6 or more miles (10+ km)
Ceiling: at least 12,000 feet AGL
Clouds: few clouds at 3600 feet AGL
Weather: no significant weather observed at this time

METAR text: EDDH 201020Z 26011KT 220V300 9999 FEW034 20/11 Q1020 NOSIG
Conditions at: EDDH (HAMBURG/FUHLSBUT, DE) observed 1020 UTC 20 August 2019
Temperature: 20.0°C (68°F)
Dewpoint: 11.0°C (52°F) [RH = 56%]
Pressure (altimeter): 30.12 inches Hg (1020.0 mb)
Winds: from the W (260 degrees) at 13 MPH (11 knots; 5.7 m/s)
Visibility: 6 or more miles (10+ km)
Ceiling: at least 12,000 feet AGL
Clouds: few clouds at 3400 feet AGL
Weather: no significant weather observed at this time

METAR text: EDDH 200950Z 22010KT 200V280 9999 FEW029 19/12 Q1020 NOSIG
Conditions at: EDDH (HAMBURG/FUHLSBUT, DE) observed 0950 UTC 20 August 2019
Temperature: 19.0°C (66°F)
Dewpoint: 12.0°C (54°F) [RH = 64%]
Pressure (altimeter): 30.12 inches Hg (1020.0 mb)
Winds: from the SW (220 degrees) at 12 MPH (10 knots; 5.1 m/s)
Visibility: 6 or more miles (10+ km)
Ceiling: at least 12,000 feet AGL
Clouds: few clouds at 2900 feet AGL
Weather: no significant weather observed at this time

METAR text: EDDH 200920Z 24009KT 220V280 9999 FEW026 20/13 Q1020 NOSIG
Conditions at: EDDH (HAMBURG/FUHLSBUT, DE) observed 0920 UTC 20 August 2019
Temperature: 20.0°C (68°F)
Dewpoint: 13.0°C (55°F) [RH = 64%]
Pressure (altimeter): 30.12 inches Hg (1020.0 mb)
Winds: from the WSW (240 degrees) at 10 MPH (9 knots; 4.6 m/s)
Visibility: 6 or more miles (10+ km)
Ceiling: at least 12,000 feet AGL
Clouds: few clouds at 2600 feet AGL
Weather: no significant weather observed at this time

METAR text: EDDH 200850Z 24011KT 210V270 9999 FEW024 18/12 Q1020 NOSIG
Conditions at: EDDH (HAMBURG/FUHLSBUT, DE) observed 0850 UTC 20 August 2019
Temperature: 18.0°C (64°F)
Dewpoint: 12.0°C (54°F) [RH = 68%]
Pressure (altimeter): 30.12 inches Hg (1020.0 mb)
Winds: from the WSW (240 degrees) at 13 MPH (11 knots; 5.7 m/s)
Visibility: 6 or more miles (10+ km)
Ceiling: at least 12,000 feet AGL
Clouds: few clouds at 2400 feet AGL
Weather: no significant weather observed at this time

METAR text: EDDH 200820Z 22012KT 9999 FEW022 18/13 Q1020 NOSIG
Conditions at: EDDH (HAMBURG/FUHLSBUT, DE) observed 0820 UTC 20 August 2019
Temperature: 18.0°C (64°F)
Dewpoint: 13.0°C (55°F) [RH = 73%]
Pressure (altimeter): 30.12 inches Hg (1020.0 mb)
Winds: from the SW (220 degrees) at 14 MPH (12 knots; 6.2 m/s)
Visibility: 6 or more miles (10+ km)
Ceiling: at least 12,000 feet AGL
Clouds: few clouds at 2200 feet AGL
Weather: no significant weather observed at this time

METAR text: EDDH 200750Z 23009KT 200V260 9999 FEW022 18/13 Q1020 NOSIG
Conditions at: EDDH (HAMBURG/FUHLSBUT, DE) observed 0750 UTC 20 August 2019
Temperature: 18.0°C (64°F)
Dewpoint: 13.0°C (55°F) [RH = 73%]
Pressure (altimeter): 30.12 inches Hg (1020.0 mb)
Winds: from the SW (230 degrees) at 10 MPH (9 knots; 4.6 m/s)
Visibility: 6 or more miles (10+ km)
Ceiling: at least 12,000 feet AGL
Clouds: few clouds at 2200 feet AGL
Weather: no significant weather observed at this time

METAR text: EDDH 200720Z 22011KT CAVOK 17/12 Q1020 NOSIG
Conditions at: EDDH (HAMBURG/FUHLSBUT, DE) observed 0720 UTC 20 August 2019
Temperature: 17.0°C (63°F)
Dewpoint: 12.0°C (54°F) [RH = 72%]
Pressure (altimeter): 30.12 inches Hg (1020.0 mb)
Winds: from the SW (220 degrees) at 13 MPH (11 knots; 5.7 m/s)
Visibility: 6 or more miles (10+ km)
Ceiling: ceiling and visibility are OK
Clouds: unknown
Weather: no significant weather observed at this time

METAR text: EDDH 200650Z 23010KT CAVOK 17/12 Q1019 NOSIG
Conditions at: EDDH (HAMBURG/FUHLSBUT, DE) observed 0650 UTC 20 August 2019
Temperature: 17.0°C (63°F)
Dewpoint: 12.0°C (54°F) [RH = 72%]
Pressure (altimeter): 30.09 inches Hg (1019.0 mb)
Winds: from the SW (230 degrees) at 12 MPH (10 knots; 5.1 m/s)
Visibility: 6 or more miles (10+ km)
Ceiling: ceiling and visibility are OK
Clouds: unknown
Weather: no significant weather observed at this time

METAR text: EDDH 200620Z 22008KT CAVOK 16/12 Q1019 NOSIG
Conditions at: EDDH (HAMBURG/FUHLSBUT, DE) observed 0620 UTC 20 August 2019
Temperature: 16.0°C (61°F)
Dewpoint: 12.0°C (54°F) [RH = 77%]
Pressure (altimeter): 30.09 inches Hg (1019.0 mb)
Winds: from the SW (220 degrees) at 9 MPH (8 knots; 4.1 m/s)
Visibility: 6 or more miles (10+ km)
Ceiling: ceiling and visibility are OK
Clouds: unknown
Weather: no significant weather observed at this time

METAR text: EDDH 200550Z 22008KT CAVOK 15/12 Q1019 NOSIG
Conditions at: EDDH (HAMBURG/FUHLSBUT, DE) observed 0550 UTC 20 August 2019
Temperature: 15.0°C (59°F)
Dewpoint: 12.0°C (54°F) [RH = 82%]
Pressure (altimeter): 30.09 inches Hg (1019.0 mb)
Winds: from the SW (220 degrees) at 9 MPH (8 knots; 4.1 m/s)
Visibility: 6 or more miles (10+ km)
Ceiling: ceiling and visibility are OK
Clouds: unknown
Weather: no significant weather observed at this time

METAR text: EDDH 200520Z 23006KT CAVOK 14/11 Q1019 NOSIG
Conditions at: EDDH (HAMBURG/FUHLSBUT, DE) observed 0520 UTC 20 August 2019
Temperature: 14.0°C (57°F)
Dewpoint: 11.0°C (52°F) [RH = 82%]
Pressure (altimeter): 30.09 inches Hg (1019.0 mb)
Winds: from the SW (230 degrees) at 7 MPH (6 knots; 3.1 m/s)
Visibility: 6 or more miles (10+ km)
Ceiling: ceiling and visibility are OK
Clouds: unknown
Weather: no significant weather observed at this time

METAR text: EDDH 200450Z 22006KT CAVOK 13/10 Q1019 NOSIG
Conditions at: EDDH (HAMBURG/FUHLSBUT, DE) observed 0450 UTC 20 August 2019
Temperature: 13.0°C (55°F)
Dewpoint: 10.0°C (50°F) [RH = 82%]
Pressure (altimeter): 30.09 inches Hg (1019.0 mb)
Winds: from the SW (220 degrees) at 7 MPH (6 knots; 3.1 m/s)
Visibility: 6 or more miles (10+ km)
Ceiling: ceiling and visibility are OK
Clouds: unknown
Weather: no significant weather observed at this time

METAR text: EDDH 200420Z 23005KT CAVOK 13/10 Q1019 NOSIG
Conditions at: EDDH (HAMBURG/FUHLSBUT, DE) observed 0420 UTC 20 August 2019
Temperature: 13.0°C (55°F)
Dewpoint: 10.0°C (50°F) [RH = 82%]
Pressure (altimeter): 30.09 inches Hg (1019.0 mb)
Winds: from the SW (230 degrees) at 6 MPH (5 knots; 2.6 m/s)
Visibility: 6 or more miles (10+ km)
Ceiling: ceiling and visibility are OK
Clouds: unknown
Weather: no significant weather observed at this time

METAR text: EDDH 200350Z 23005KT CAVOK 13/10 Q1018 NOSIG
Conditions at: EDDH (HAMBURG/FUHLSBUT, DE) observed 0350 UTC 20 August 2019
Temperature: 13.0°C (55°F)
Dewpoint: 10.0°C (50°F) [RH = 82%]
Pressure (altimeter): 30.06 inches Hg (1018.0 mb)
Winds: from the SW (230 degrees) at 6 MPH (5 knots; 2.6 m/s)
Visibility: 6 or more miles (10+ km)
Ceiling: ceiling and visibility are OK
Clouds: unknown
Weather: no significant weather observed at this time

METAR text: EDDH 200320Z 23006KT CAVOK 13/10 Q1018 NOSIG
Conditions at: EDDH (HAMBURG/FUHLSBUT, DE) observed 0320 UTC 20 August 2019
Temperature: 13.0°C (55°F)
Dewpoint: 10.0°C (50°F) [RH = 82%]
Pressure (altimeter): 30.06 inches Hg (1018.0 mb)
Winds: from the SW (230 degrees) at 7 MPH (6 knots; 3.1 m/s)
Visibility: 6 or more miles (10+ km)
Ceiling: ceiling and visibility are OK
Clouds: unknown
Weather: no significant weather observed at this time

METAR text: EDDH 200250Z 22006KT CAVOK 13/10 Q1018 NOSIG
Conditions at: EDDH (HAMBURG/FUHLSBUT, DE) observed 0250 UTC 20 August 2019
Temperature: 13.0°C (55°F)
Dewpoint: 10.0°C (50°F) [RH = 82%]
Pressure (altimeter): 30.06 inches Hg (1018.0 mb)
Winds: from the SW (220 degrees) at 7 MPH (6 knots; 3.1 m/s)
Visibility: 6 or more miles (10+ km)
Ceiling: ceiling and visibility are OK
Clouds: unknown
Weather: no significant weather observed at this time

METAR text: EDDH 200220Z 22006KT CAVOK 13/10 Q1018 NOSIG
Conditions at: EDDH (HAMBURG/FUHLSBUT, DE) observed 0220 UTC 20 August 2019
Temperature: 13.0°C (55°F)
Dewpoint: 10.0°C (50°F) [RH = 82%]
Pressure (altimeter): 30.06 inches Hg (1018.0 mb)
Winds: from the SW (220 degrees) at 7 MPH (6 knots; 3.1 m/s)
Visibility: 6 or more miles (10+ km)
Ceiling: ceiling and visibility are OK
Clouds: unknown
Weather: no significant weather observed at this time

METAR text: EDDH 200150Z 22006KT CAVOK 14/10 Q1018 NOSIG
Conditions at: EDDH (HAMBURG/FUHLSBUT, DE) observed 0150 UTC 20 August 2019
Temperature: 14.0°C (57°F)
Dewpoint: 10.0°C (50°F) [RH = 77%]
Pressure (altimeter): 30.06 inches Hg (1018.0 mb)
Winds: from the SW (220 degrees) at 7 MPH (6 knots; 3.1 m/s)
Visibility: 6 or more miles (10+ km)
Ceiling: ceiling and visibility are OK
Clouds: unknown
Weather: no significant weather observed at this time

METAR text: EDDH 200120Z 23007KT CAVOK 15/11 Q1018 NOSIG
Conditions at: EDDH (HAMBURG/FUHLSBUT, DE) observed 0120 UTC 20 August 2019
Temperature: 15.0°C (59°F)
Dewpoint: 11.0°C (52°F) [RH = 77%]
Pressure (altimeter): 30.06 inches Hg (1018.0 mb)
Winds: from the SW (230 degrees) at 8 MPH (7 knots; 3.6 m/s)
Visibility: 6 or more miles (10+ km)
Ceiling: ceiling and visibility are OK
Clouds: unknown
Weather: no significant weather observed at this time

METAR text: EDDH 200050Z 21006KT CAVOK 14/11 Q1018 NOSIG
Conditions at: EDDH (HAMBURG/FUHLSBUT, DE) observed 0050 UTC 20 August 2019
Temperature: 14.0°C (57°F)
Dewpoint: 11.0°C (52°F) [RH = 82%]
Pressure (altimeter): 30.06 inches Hg (1018.0 mb)
Winds: from the SSW (210 degrees) at 7 MPH (6 knots; 3.1 m/s)
Visibility: 6 or more miles (10+ km)
Ceiling: ceiling and visibility are OK
Clouds: unknown
Weather: no significant weather observed at this time

METAR text: EDDH 200020Z 22004KT CAVOK 14/11 Q1018 NOSIG
Conditions at: EDDH (HAMBURG/FUHLSBUT, DE) observed 0020 UTC 20 August 2019
Temperature: 14.0°C (57°F)
Dewpoint: 11.0°C (52°F) [RH = 82%]
Pressure (altimeter): 30.06 inches Hg (1018.0 mb)
Winds: from the SW (220 degrees) at 5 MPH (4 knots; 2.1 m/s)
Visibility: 6 or more miles (10+ km)
Ceiling: ceiling and visibility are OK
Clouds: unknown
Weather: no significant weather observed at this time

METAR text: EDDH 192350Z 22004KT CAVOK 14/10 Q1018 NOSIG
Conditions at: EDDH (HAMBURG/FUHLSBUT, DE) observed 2350 UTC 19 August 2019
Temperature: 14.0°C (57°F)
Dewpoint: 10.0°C (50°F) [RH = 77%]
Pressure (altimeter): 30.06 inches Hg (1018.0 mb)
Winds: from the SW (220 degrees) at 5 MPH (4 knots; 2.1 m/s)
Visibility: 6 or more miles (10+ km)
Ceiling: ceiling and visibility are OK
Clouds: unknown
Weather: no significant weather observed at this time

METAR text: EDDH 192320Z 21003KT CAVOK 13/11 Q1018 NOSIG
Conditions at: EDDH (HAMBURG/FUHLSBUT, DE) observed 2320 UTC 19 August 2019
Temperature: 13.0°C (55°F)
Dewpoint: 11.0°C (52°F) [RH = 88%]
Pressure (altimeter): 30.06 inches Hg (1018.0 mb)
Winds: from the SSW (210 degrees) at 3 MPH (3 knots; 1.5 m/s)
Visibility: 6 or more miles (10+ km)
Ceiling: ceiling and visibility are OK
Clouds: unknown
Weather: no significant weather observed at this time

METAR text: EDDH 192250Z VRB02KT CAVOK 12/10 Q1018 NOSIG
Conditions at: EDDH (HAMBURG/FUHLSBUT, DE) observed 2250 UTC 19 August 2019
Temperature: 12.0°C (54°F)
Dewpoint: 10.0°C (50°F) [RH = 88%]
Pressure (altimeter): 30.06 inches Hg (1018.0 mb)
Winds: variable direction winds at 2 MPH (2 knots; 1.0 m/s)
Visibility: 6 or more miles (10+ km)
Ceiling: ceiling and visibility are OK
Clouds: unknown
Weather: no significant weather observed at this time

METAR text: EDDH 192220Z VRB01KT CAVOK 13/11 Q1017 NOSIG
Conditions at: EDDH (HAMBURG/FUHLSBUT, DE) observed 2220 UTC 19 August 2019
Temperature: 13.0°C (55°F)
Dewpoint: 11.0°C (52°F) [RH = 88%]
Pressure (altimeter): 30.03 inches Hg (1017.0 mb)
Winds: variable direction winds at 1 MPH (1 knots; 0.5 m/s)
Visibility: 6 or more miles (10+ km)
Ceiling: ceiling and visibility are OK
Clouds: unknown
Weather: no significant weather observed at this time

METAR text: EDDH 192150Z VRB02KT CAVOK 14/11 Q1017 NOSIG
Conditions at: EDDH (HAMBURG/FUHLSBUT, DE) observed 2150 UTC 19 August 2019
Temperature: 14.0°C (57°F)
Dewpoint: 11.0°C (52°F) [RH = 82%]
Pressure (altimeter): 30.03 inches Hg (1017.0 mb)
Winds: variable direction winds at 2 MPH (2 knots; 1.0 m/s)
Visibility: 6 or more miles (10+ km)
Ceiling: ceiling and visibility are OK
Clouds: unknown
Weather: no significant weather observed at this time

METAR text: EDDH 192120Z 22003KT CAVOK 13/10 Q1017 NOSIG
Conditions at: EDDH (HAMBURG/FUHLSBUT, DE) observed 2120 UTC 19 August 2019
Temperature: 13.0°C (55°F)
Dewpoint: 10.0°C (50°F) [RH = 82%]
Pressure (altimeter): 30.03 inches Hg (1017.0 mb)
Winds: from the SW (220 degrees) at 3 MPH (3 knots; 1.5 m/s)
Visibility: 6 or more miles (10+ km)
Ceiling: ceiling and visibility are OK
Clouds: unknown
Weather: no significant weather observed at this time

METAR text: EDDH 192050Z 22003KT CAVOK 14/11 Q1017 NOSIG
Conditions at: EDDH (HAMBURG/FUHLSBUT, DE) observed 2050 UTC 19 August 2019
Temperature: 14.0°C (57°F)
Dewpoint: 11.0°C (52°F) [RH = 82%]
Pressure (altimeter): 30.03 inches Hg (1017.0 mb)
Winds: from the SW (220 degrees) at 3 MPH (3 knots; 1.5 m/s)
Visibility: 6 or more miles (10+ km)
Ceiling: ceiling and visibility are OK
Clouds: unknown
Weather: no significant weather observed at this time

METAR text: EDDH 192020Z 23003KT CAVOK 15/12 Q1017 NOSIG
Conditions at: EDDH (HAMBURG/FUHLSBUT, DE) observed 2020 UTC 19 August 2019
Temperature: 15.0°C (59°F)
Dewpoint: 12.0°C (54°F) [RH = 82%]
Pressure (altimeter): 30.03 inches Hg (1017.0 mb)
Winds: from the SW (230 degrees) at 3 MPH (3 knots; 1.5 m/s)
Visibility: 6 or more miles (10+ km)
Ceiling: ceiling and visibility are OK
Clouds: unknown
Weather: no significant weather observed at this time

METAR text: EDDH 191950Z 22004KT CAVOK 16/11 Q1017 NOSIG
Conditions at: EDDH (HAMBURG/FUHLSBUT, DE) observed 1950 UTC 19 August 2019
Temperature: 16.0°C (61°F)
Dewpoint: 11.0°C (52°F) [RH = 72%]
Pressure (altimeter): 30.03 inches Hg (1017.0 mb)
Winds: from the SW (220 degrees) at 5 MPH (4 knots; 2.1 m/s)
Visibility: 6 or more miles (10+ km)
Ceiling: ceiling and visibility are OK
Clouds: unknown
Weather: no significant weather observed at this time

METAR text: EDDH 191920Z 23004KT CAVOK 17/10 Q1017 NOSIG
Conditions at: EDDH (HAMBURG/FUHLSBUT, DE) observed 1920 UTC 19 August 2019
Temperature: 17.0°C (63°F)
Dewpoint: 10.0°C (50°F) [RH = 63%]
Pressure (altimeter): 30.03 inches Hg (1017.0 mb)
Winds: from the SW (230 degrees) at 5 MPH (4 knots; 2.1 m/s)
Visibility: 6 or more miles (10+ km)
Ceiling: ceiling and visibility are OK
Clouds: unknown
Weather: no significant weather observed at this time

METAR text: EDDH 191850Z 23009KT CAVOK 19/10 Q1016 NOSIG
Conditions at: EDDH (HAMBURG/FUHLSBUT, DE) observed 1850 UTC 19 August 2019
Temperature: 19.0°C (66°F)
Dewpoint: 10.0°C (50°F) [RH = 56%]
Pressure (altimeter): 30.00 inches Hg (1016.0 mb)
Winds: from the SW (230 degrees) at 10 MPH (9 knots; 4.6 m/s)
Visibility: 6 or more miles (10+ km)
Ceiling: ceiling and visibility are OK
Clouds: unknown
Weather: no significant weather observed at this time

METAR text: EDDH 191820Z 23008KT CAVOK 19/10 Q1016 NOSIG
Conditions at: EDDH (HAMBURG/FUHLSBUT, DE) observed 1820 UTC 19 August 2019
Temperature: 19.0°C (66°F)
Dewpoint: 10.0°C (50°F) [RH = 56%]
Pressure (altimeter): 30.00 inches Hg (1016.0 mb)
Winds: from the SW (230 degrees) at 9 MPH (8 knots; 4.1 m/s)
Visibility: 6 or more miles (10+ km)
Ceiling: ceiling and visibility are OK
Clouds: unknown
Weather: no significant weather observed at this time

METAR text: EDDH 191750Z 24010KT 9999 FEW048 20/10 Q1016 NOSIG
Conditions at: EDDH (HAMBURG/FUHLSBUT, DE) observed 1750 UTC 19 August 2019
Temperature: 20.0°C (68°F)
Dewpoint: 10.0°C (50°F) [RH = 53%]
Pressure (altimeter): 30.00 inches Hg (1016.0 mb)
Winds: from the WSW (240 degrees) at 12 MPH (10 knots; 5.1 m/s)
Visibility: 6 or more miles (10+ km)
Ceiling: at least 12,000 feet AGL
Clouds: few clouds at 4800 feet AGL
Weather: no significant weather observed at this time

METAR text: EDDH 191720Z 24011KT 9999 FEW047 21/10 Q1015 NOSIG
Conditions at: EDDH (HAMBURG/FUHLSBUT, DE) observed 1720 UTC 19 August 2019
Temperature: 21.0°C (70°F)
Dewpoint: 10.0°C (50°F) [RH = 49%]
Pressure (altimeter): 29.97 inches Hg (1015.0 mb)
Winds: from the WSW (240 degrees) at 13 MPH (11 knots; 5.7 m/s)
Visibility: 6 or more miles (10+ km)
Ceiling: at least 12,000 feet AGL
Clouds: few clouds at 4700 feet AGL
Weather: no significant weather observed at this time

METAR text: EDDH 191650Z 25011KT 220V280 CAVOK 21/10 Q1015 NOSIG
Conditions at: EDDH (HAMBURG/FUHLSBUT, DE) observed 1650 UTC 19 August 2019
Temperature: 21.0°C (70°F)
Dewpoint: 10.0°C (50°F) [RH = 49%]
Pressure (altimeter): 29.97 inches Hg (1015.0 mb)
Winds: from the WSW (250 degrees) at 13 MPH (11 knots; 5.7 m/s)
Visibility: 6 or more miles (10+ km)
Ceiling: ceiling and visibility are OK
Clouds: unknown
Weather: no significant weather observed at this time

METAR text: EDDH 191620Z 24010KT 200V280 CAVOK 21/10 Q1015 NOSIG
Conditions at: EDDH (HAMBURG/FUHLSBUT, DE) observed 1620 UTC 19 August 2019
Temperature: 21.0°C (70°F)
Dewpoint: 10.0°C (50°F) [RH = 49%]
Pressure (altimeter): 29.97 inches Hg (1015.0 mb)
Winds: from the WSW (240 degrees) at 12 MPH (10 knots; 5.1 m/s)
Visibility: 6 or more miles (10+ km)
Ceiling: ceiling and visibility are OK
Clouds: unknown
Weather: no significant weather observed at this time

METAR text: EDDH 191550Z 24012KT CAVOK 21/09 Q1015 TEMPO 24015G25KT
Conditions at: EDDH (HAMBURG/FUHLSBUT, DE) observed 1550 UTC 19 August 2019
Temperature: 21.0°C (70°F)
Dewpoint: 9.0°C (48°F) [RH = 46%]
Pressure (altimeter): 29.97 inches Hg (1015.0 mb)
Winds: from the WSW (240 degrees) at 14 MPH (12 knots; 6.2 m/s)
Visibility: 6 or more miles (10+ km)
Ceiling: ceiling and visibility are OK
Clouds: unknown
Weather: no significant weather observed at this time

METAR text: EDDH 191520Z 23015KT CAVOK 22/10 Q1015 TEMPO 24015G25KT
Conditions at: EDDH (HAMBURG/FUHLSBUT, DE) observed 1520 UTC 19 August 2019
Temperature: 22.0°C (72°F)
Dewpoint: 10.0°C (50°F) [RH = 46%]
Pressure (altimeter): 29.97 inches Hg (1015.0 mb)
Winds: from the SW (230 degrees) at 17 MPH (15 knots; 7.7 m/s)
Visibility: 6 or more miles (10+ km)
Ceiling: ceiling and visibility are OK
Clouds: unknown
Weather: no significant weather observed at this time

METAR text: EDDH 191450Z 23013KT 200V270 CAVOK 22/11 Q1015 TEMPO 24015G25KT
Conditions at: EDDH (HAMBURG/FUHLSBUT, DE) observed 1450 UTC 19 August 2019
Temperature: 22.0°C (72°F)
Dewpoint: 11.0°C (52°F) [RH = 50%]
Pressure (altimeter): 29.97 inches Hg (1015.0 mb)
Winds: from the SW (230 degrees) at 15 MPH (13 knots; 6.7 m/s)
Visibility: 6 or more miles (10+ km)
Ceiling: ceiling and visibility are OK
Clouds: unknown
Weather: no significant weather observed at this time

METAR text: EDDH 191420Z 23010KT 200V260 9999 SCT046 22/11 Q1015 TEMPO 24015G25KT
Conditions at: EDDH (HAMBURG/FUHLSBUT, DE) observed 1420 UTC 19 August 2019
Temperature: 22.0°C (72°F)
Dewpoint: 11.0°C (52°F) [RH = 50%]
Pressure (altimeter): 29.97 inches Hg (1015.0 mb)
Winds: from the SW (230 degrees) at 12 MPH (10 knots; 5.1 m/s)
Visibility: 6 or more miles (10+ km)
Ceiling: at least 12,000 feet AGL
Clouds: scattered clouds at 4600 feet AGL
Weather: no significant weather observed at this time

METAR text: EDDH 191350Z 22016KT 9999 SCT045 21/11 Q1014 TEMPO 24015G25KT
Conditions at: EDDH (HAMBURG/FUHLSBUT, DE) observed 1350 UTC 19 August 2019
Temperature: 21.0°C (70°F)
Dewpoint: 11.0°C (52°F) [RH = 53%]
Pressure (altimeter): 29.94 inches Hg (1014.0 mb)
Winds: from the SW (220 degrees) at 18 MPH (16 knots; 8.2 m/s)
Visibility: 6 or more miles (10+ km)
Ceiling: at least 12,000 feet AGL
Clouds: scattered clouds at 4500 feet AGL
Weather: no significant weather observed at this time

METAR text: EDDH 191320Z 23014KT 9999 SCT044 21/11 Q1014 TEMPO 24015G25KT
Conditions at: EDDH (HAMBURG/FUHLSBUT, DE) observed 1320 UTC 19 August 2019
Temperature: 21.0°C (70°F)
Dewpoint: 11.0°C (52°F) [RH = 53%]
Pressure (altimeter): 29.94 inches Hg (1014.0 mb)
Winds: from the SW (230 degrees) at 16 MPH (14 knots; 7.2 m/s)
Visibility: 6 or more miles (10+ km)
Ceiling: at least 12,000 feet AGL
Clouds: scattered clouds at 4400 feet AGL
Weather: no significant weather observed at this time

METAR text: EDDH 191250Z 23014KT 9999 SCT041 22/12 Q1014 TEMPO 24015G25KT
Conditions at: EDDH (HAMBURG/FUHLSBUT, DE) observed 1250 UTC 19 August 2019
Temperature: 22.0°C (72°F)
Dewpoint: 12.0°C (54°F) [RH = 53%]
Pressure (altimeter): 29.94 inches Hg (1014.0 mb)
Winds: from the SW (230 degrees) at 16 MPH (14 knots; 7.2 m/s)
Visibility: 6 or more miles (10+ km)
Ceiling: at least 12,000 feet AGL
Clouds: scattered clouds at 4100 feet AGL
Weather: no significant weather observed at this time

METAR text: EDDH 191220Z 23014KT 9999 SCT038 21/11 Q1014 TEMPO 24015G25KT
Conditions at: EDDH (HAMBURG/FUHLSBUT, DE) observed 1220 UTC 19 August 2019
Temperature: 21.0°C (70°F)
Dewpoint: 11.0°C (52°F) [RH = 53%]
Pressure (altimeter): 29.94 inches Hg (1014.0 mb)
Winds: from the SW (230 degrees) at 16 MPH (14 knots; 7.2 m/s)
Visibility: 6 or more miles (10+ km)
Ceiling: at least 12,000 feet AGL
Clouds: scattered clouds at 3800 feet AGL
Weather: no significant weather observed at this time

METAR text: EDDH 191150Z 23014KT 9999 SCT036 20/12 Q1014 TEMPO 23015G25KT
Conditions at: EDDH (HAMBURG/FUHLSBUT, DE) observed 1150 UTC 19 August 2019
Temperature: 20.0°C (68°F)
Dewpoint: 12.0°C (54°F) [RH = 60%]
Pressure (altimeter): 29.94 inches Hg (1014.0 mb)
Winds: from the SW (230 degrees) at 16 MPH (14 knots; 7.2 m/s)
Visibility: 6 or more miles (10+ km)
Ceiling: at least 12,000 feet AGL
Clouds: scattered clouds at 3600 feet AGL
Weather: no significant weather observed at this time

METAR text: EDDH 191120Z 23016KT 9999 FEW029TCU SCT032 21/12 Q1013 TEMPO 23015G25KT
Conditions at: EDDH (HAMBURG/FUHLSBUT, DE) observed 1120 UTC 19 August 2019
Temperature: 21.0°C (70°F)
Dewpoint: 12.0°C (54°F) [RH = 56%]
Pressure (altimeter): 29.91 inches Hg (1013.0 mb)
Winds: from the SW (230 degrees) at 18 MPH (16 knots; 8.2 m/s)
Visibility: 6 or more miles (10+ km)
Ceiling: at least 12,000 feet AGL
Clouds: few clouds at 2900 feet AGL
scattered clouds at 3200 feet AGL
Weather: no significant weather observed at this time

METAR text: EDDH 191050Z 23015KT 200V270 9999 VCSH FEW026TCU SCT030 20/13 Q1013 TEMPO 23015G25KT SHRA
Conditions at: EDDH (HAMBURG/FUHLSBUT, DE) observed 1050 UTC 19 August 2019
Temperature: 20.0°C (68°F)
Dewpoint: 13.0°C (55°F) [RH = 64%]
Pressure (altimeter): 29.91 inches Hg (1013.0 mb)
Winds: from the SW (230 degrees) at 17 MPH (15 knots; 7.7 m/s)
Visibility: 6 or more miles (10+ km)
Ceiling: at least 12,000 feet AGL
Clouds: few clouds at 2600 feet AGL
scattered clouds at 3000 feet AGL
Weather: VCSH  (showers in vicinity)

METAR text: EDDH 191020Z 22013KT 9999 VCSH FEW022TCU SCT025 19/13 Q1013 TEMPO 23015G25KT SHRA
Conditions at: EDDH (HAMBURG/FUHLSBUT, DE) observed 1020 UTC 19 August 2019
Temperature: 19.0°C (66°F)
Dewpoint: 13.0°C (55°F) [RH = 68%]
Pressure (altimeter): 29.91 inches Hg (1013.0 mb)
Winds: from the SW (220 degrees) at 15 MPH (13 knots; 6.7 m/s)
Visibility: 6 or more miles (10+ km)
Ceiling: at least 12,000 feet AGL
Clouds: few clouds at 2200 feet AGL
scattered clouds at 2500 feet AGL
Weather: VCSH  (showers in vicinity)

METAR text: EDDH 190950Z 22015KT 200V270 9999 SCT023 19/13 Q1013 TEMPO 23015G25KT
Conditions at: EDDH (HAMBURG/FUHLSBUT, DE) observed 0950 UTC 19 August 2019
Temperature: 19.0°C (66°F)
Dewpoint: 13.0°C (55°F) [RH = 68%]
Pressure (altimeter): 29.91 inches Hg (1013.0 mb)
Winds: from the SW (220 degrees) at 17 MPH (15 knots; 7.7 m/s)
Visibility: 6 or more miles (10+ km)
Ceiling: at least 12,000 feet AGL
Clouds: scattered clouds at 2300 feet AGL
Weather: no significant weather observed at this time

METAR text: EDDH 190920Z 23014KT 9999 FEW018 BKN020 18/13 Q1013 TEMPO 23015G25KT
Conditions at: EDDH (HAMBURG/FUHLSBUT, DE) observed 0920 UTC 19 August 2019
Temperature: 18.0°C (64°F)
Dewpoint: 13.0°C (55°F) [RH = 73%]
Pressure (altimeter): 29.91 inches Hg (1013.0 mb)
Winds: from the SW (230 degrees) at 16 MPH (14 knots; 7.2 m/s)
Visibility: 6 or more miles (10+ km)
Ceiling: 2000 feet AGL
Clouds: few clouds at 1800 feet AGL
broken clouds at 2000 feet AGL
Weather: no significant weather observed at this time

Forecast for: EDDH (HAMBURG/FUHLSBUT, DE)
Text: TAF EDDH 201700Z 2018/2124 26008KT 9999 FEW045
Forecast period: 1800 UTC 20 August 2019 to 0000 UTC 22 August 2019
Forecast type: FROM: standard forecast or significant change
Winds: from the W (260 degrees) at 9 MPH (8 knots; 4.1 m/s)
Visibility: 6 or more miles 10+ km)
Ceiling: at least 12,000 feet AGL
Clouds: few clouds at 4500 feet AGL
Weather: no significant weather forecast for this period
Text: BECMG 2018/2020 VRB03KT
Forecast period: 1800 UTC 20 August 2019 to 0600 UTC 21 August 2019
Forecast type: BECOMING: Conditions expected to become as follows by 2000 UTC 20 August 2019
Winds: variable direction winds at 3 MPH (3 knots; 1.5 m/s)
Visibility: 6 or more miles 10+ km)
Ceiling: at least 12,000 feet AGL
Clouds: few clouds at 4500 feet AGL
Weather: no significant weather forecast for this period
Text: BECMG 2106/2108 28008KT
Forecast period: 0600 to 1600 UTC 21 August 2019
Forecast type: BECOMING: Conditions expected to become as follows by 0800 UTC 21 August 2019
Winds: from the W (280 degrees) at 9 MPH (8 knots; 4.1 m/s)
Visibility: 6 or more miles 10+ km)
Ceiling: at least 12,000 feet AGL
Clouds: few clouds at 4500 feet AGL
Weather: no significant weather forecast for this period
Text: BECMG 2116/2118 VRB03KT
Forecast period: 1600 UTC 21 August 2019 to 0000 UTC 22 August 2019
Forecast type: BECOMING: Conditions expected to become as follows by 1800 UTC 21 August 2019
Winds: variable direction winds at 3 MPH (3 knots; 1.5 m/s)
Visibility: 6 or more miles 10+ km)
Ceiling: at least 12,000 feet AGL
Clouds: few clouds at 4500 feet AGL
Weather: no significant weather forecast for this period